Time;durP1;ratioP1;P1;durP2;ratioP2;P2;SDS_P1;SDS_P2;PMS_P1;PMS_P2;Temp;Humidity;BMP_temperature;BMP_pressure;BME280_temperature;BME280_humidity;BME280_pressure;Samples;Min_cycle;Max_cycle;Signal;HPM_P1;HPM_P2
2023/01/09 00:00:47;;;;;;;18.67;5.18;;;;;;;;;;4903038;29;20051;-72
2023/01/09 00:03:13;;;;;;;13.68;4.57;;;;;;;;;;4902802;29;20048;-72
2023/01/09 00:05:39;;;;;;;14.48;4.30;;;;;;;;;;4887134;29;20088;-72
2023/01/09 00:08:06;;;;;;;15.93;3.75;;;;;;;;;;4902905;29;20044;-72
2023/01/09 00:10:32;;;;;;;14.73;4.28;;;;;;;;;;4902896;29;20048;-72
2023/01/09 00:12:58;;;;;;;11.73;4.80;;;;;;;;;;4902914;29;20044;-72
2023/01/09 00:15:24;;;;;;;17.13;4.75;;;;;;;;;;4887196;29;20055;-72
2023/01/09 00:17:50;;;;;;;16.35;5.38;;;;;;;;;;4902928;29;20466;-72
2023/01/09 00:20:16;;;;;;;11.27;4.53;;;;;;;;;;4902981;29;20073;-73
2023/01/09 00:22:42;;;;;;;8.30;4.35;;;;;;;;;;4887324;29;20449;-72
2023/01/09 00:25:08;;;;;;;9.80;4.30;;;;;;;;;;4902471;29;20048;-72
2023/01/09 00:27:35;;;;;;;17.58;4.47;;;7.00;99.90;;;;;;4902556;29;20055;-72
2023/01/09 00:30:02;;;;;;;11.07;4.28;;;;;;;;;;4901250;29;20075;-71
2023/01/09 00:32:31;;;;;;;10.32;4.05;;;6.90;99.90;;;;;;4902317;29;20493;-72
2023/01/09 00:35:00;;;;;;;20.05;4.47;;;;;;;;;;4902472;29;20132;-71
2023/01/09 00:37:26;;;;;;;12.98;4.07;;;;;;;;;;4886826;29;20044;-71
2023/01/09 00:39:52;;;;;;;15.73;5.00;;;;;;;;;;4902726;29;20051;-72
2023/01/09 00:42:23;;;;;;;9.18;4.45;;;7.10;99.90;;;;;;4886711;29;20048;-72
2023/01/09 00:44:55;;;;;;;16.65;4.43;;;;;;;;;;4902331;29;20052;-72
2023/01/09 00:47:26;;;;;;;12.90;4.47;;;;;;;;;;4902553;29;20065;-72
2023/01/09 00:49:54;;;;;;;10.82;4.38;;;7.30;99.90;;;;;;4902181;29;20044;-71
2023/01/09 00:52:20;;;;;;;11.35;4.60;;;;;;;;;;4919087;29;20469;-72
2023/01/09 00:54:46;;;;;;;10.98;3.95;;;;;;;;;;4902275;29;20055;-72
2023/01/09 00:57:13;;;;;;;12.38;4.20;;;;;;;;;;4886530;29;20071;-72
2023/01/09 00:59:40;;;;;;;8.68;3.75;;;;;;;;;;4902306;29;20059;-72
2023/01/09 01:02:06;;;;;;;9.63;3.83;;;;;;;;;;4886354;29;20058;-77
2023/01/09 01:10:07;;;;;;;14.18;3.88;;;7.10;99.90;;;;;;4902092;29;20115;-77
2023/01/09 01:12:33;;;;;;;13.85;4.30;;;;;;;;;;4901768;29;20048;-77
2023/01/09 01:14:59;;;;;;;18.30;4.40;;;;;;;;;;4901695;29;20048;-77
2023/01/09 01:17:25;;;;;;;12.05;3.53;;;;;;;;;;4901710;29;20103;-77
2023/01/09 01:19:51;;;;;;;18.88;3.83;;;;;;;;;;4901961;29;20044;-77
2023/01/09 01:22:17;;;;;;;13.23;4.30;;;;;;;;;;4901913;29;20119;-77
2023/01/09 01:24:43;;;;;;;14.18;4.20;;;;;;;;;;4901948;29;20048;-77
2023/01/09 01:27:09;;;;;;;14.98;3.75;;;;;;;;;;4901627;29;20047;-77
2023/01/09 01:29:35;;;;;;;15.40;4.18;;;;;;;;;;4886051;29;20508;-77
2023/01/09 01:32:01;;;;;;;12.40;4.00;;;;;;;;;;4901854;29;20052;-77
2023/01/09 01:34:28;;;;;;;10.45;3.45;;;7.30;99.90;;;;;;4903027;29;20171;-77
2023/01/09 01:36:54;;;;;;;15.82;4.03;;;;;;;;;;4902610;29;20405;-77
2023/01/09 01:39:20;;;;;;;19.80;3.92;;;;;;;;;;4902101;29;20059;-77
2023/01/09 01:41:47;;;;;;;18.40;3.60;;;;;;;;;;4902225;29;20143;-77
2023/01/09 01:44:50;;;;;;;14.02;4.15;;;7.30;99.90;;;;;;4901927;29;20446;-77
2023/01/09 01:47:17;;;;;;;20.90;3.53;;;;;;;;;;4918156;29;20064;-77
2023/01/09 01:49:44;;;;;;;19.30;3.88;;;;;;;;;;4901074;29;20044;-77
2023/01/09 01:52:10;;;;;;;15.90;3.42;;;;;;;;;;4901057;29;20087;-77
2023/01/09 01:54:36;;;;;;;10.80;3.75;;;;;;;;;;4885580;29;20044;-77
2023/01/09 01:57:04;;;;;;;25.65;3.90;;;;;;;;;;4900399;29;20089;-77
2023/01/09 01:59:49;;;;;;;10.50;3.08;;;7.30;99.90;;;;;;4900768;29;20044;-77
2023/01/09 02:02:18;;;;;;;12.88;3.53;;;6.80;99.90;;;;;;4885480;29;20374;-77
2023/01/09 02:04:46;;;;;;;27.55;3.97;;;7.10;99.90;;;;;;4900804;29;20191;-77
2023/01/09 02:07:12;;;;;;;12.88;2.75;;;;;;;;;;4901025;29;20052;-77
2023/01/09 02:09:40;;;;;;;17.10;2.88;;;7.20;99.90;;;;;;4885117;29;20052;-77
2023/01/09 02:12:22;;;;;;;10.93;2.97;;;;;;;;;;4900688;29;20511;-76
2023/01/09 02:14:50;;;;;;;12.75;3.15;;;;;;;;;;4900686;29;20107;-77
2023/01/09 02:17:24;;;;;;;14.00;3.30;;;6.90;99.90;;;;;;4900660;29;20505;-77
2023/01/09 02:20:19;;;;;;;23.52;3.38;;;6.80;99.90;;;;;;4900594;29;20047;-77
2023/01/09 02:23:18;;;;;;;16.05;2.80;;;6.70;99.90;;;;;;4900715;29;20067;-77
2023/01/09 02:26:11;;;;;;;14.20;3.58;;;6.90;99.90;;;;;;4900486;29;20074;-77
2023/01/09 02:28:49;;;;;;;12.82;3.17;;;;;;;;;;4900479;29;20123;-77
2023/01/09 02:31:33;;;;;;;13.50;2.45;;;;;;;;;;4900855;29;20102;-77
2023/01/09 02:34:25;;;;;;;10.07;2.88;;;6.80;99.90;;;;;;4884899;29;20107;-77
2023/01/09 02:36:51;;;;;;;12.05;2.90;;;;;;;;;;4900369;29;20039;-77
2023/01/09 02:39:32;;;;;;;19.67;3.20;;;;;;;;;;4900352;29;20051;-77
2023/01/09 02:42:05;;;;;;;18.02;2.67;;;;;;;;;;4900504;29;20374;-77
2023/01/09 02:44:34;;;;;;;22.15;5.32;;;6.60;99.90;;;;;;4900147;29;20055;-77
2023/01/09 02:47:06;;;;;;;18.60;3.65;;;6.50;99.90;;;;;;4917232;29;20040;-77
2023/01/09 02:49:38;;;;;;;10.27;2.55;;;6.80;99.90;;;;;;4900209;29;20048;-77
2023/01/09 02:52:10;;;;;;;16.83;3.13;;;;;;;;;;4899711;29;20075;-77
2023/01/09 02:54:39;;;;;;;25.92;4.55;;;;;;;;;;4900420;29;20055;-77
2023/01/09 02:57:44;;;;;;;14.30;3.15;;;6.70;99.90;;;;;;4900086;29;20493;-77
2023/01/09 03:00:43;;;;;;;18.10;3.15;;;6.40;99.90;;;;;;4880340;29;20095;-77
2023/01/09 03:03:15;;;;;;;28.77;3.92;;;;;;;;;;4900141;29;20044;-77
2023/01/09 03:05:50;;;;;;;15.55;3.08;;;6.40;99.90;;;;;;4899934;29;20524;-77
2023/01/09 03:08:18;;;;;;;17.92;3.58;;;;;;;;;;4899926;29;20374;-77
2023/01/09 03:10:44;;;;;;;17.30;4.00;;;;;;;;;;4884279;29;20493;-77
2023/01/09 03:13:12;;;;;;;12.75;3.38;;;;;;;;;;4900263;29;20067;-77
2023/01/09 03:15:40;;;;;;;14.82;3.67;;;;;;;;;;4916924;29;20544;-77
2023/01/09 03:18:08;;;;;;;28.35;4.25;;;;;;;;;;4899798;29;20052;-77
2023/01/09 03:20:34;;;;;;;15.15;3.53;;;;;;;;;;4916685;29;20429;-77
2023/01/09 03:23:02;;;;;;;11.30;3.90;;;6.40;99.90;;;;;;4884139;29;20046;-77
2023/01/09 03:25:30;;;;;;;20.75;4.68;;;;;;;;;;4899640;29;20091;-77
2023/01/09 03:28:15;;;;;;;15.70;3.63;;;6.30;99.90;;;;;;4899824;29;20040;-77
2023/01/09 03:30:41;;;;;;;14.73;3.40;;;;;;;;;;4899695;29;20378;-77
2023/01/09 03:33:07;;;;;;;15.23;4.38;;;;;;;;;;4884199;29;20106;-77
2023/01/09 03:35:33;;;;;;;14.60;3.70;;;;;;;;;;4899655;29;20421;-77
2023/01/09 03:37:59;;;;;;;18.08;4.20;;;;;;;;;;4899878;29;20133;-77
2023/01/09 03:40:25;;;;;;;18.42;4.97;;;;;;;;;;4899746;29;20052;-77
2023/01/09 03:42:51;;;;;;;14.90;4.38;;;;;;;;;;4899520;29;20396;-77
2023/01/09 03:45:17;;;;;;;14.82;4.22;;;;;;;;;;4899417;29;20134;-77
2023/01/09 03:47:43;;;;;;;17.45;4.78;;;;;;;;;;4884105;29;20044;-77
2023/01/09 03:50:10;;;;;;;15.90;4.60;;;;;;;;;;4899606;29;20044;-77
2023/01/09 03:52:36;;;;;;;16.75;4.75;;;;;;;;;;4899658;29;20036;-77
2023/01/09 03:55:02;;;;;;;22.25;4.78;;;;;;;;;;4899427;29;20048;-77
2023/01/09 03:57:28;;;;;;;16.35;4.20;;;;;;;;;;4883859;29;20131;-77
2023/01/09 03:59:54;;;;;;;13.82;5.50;;;;;;;;;;4899574;29;20044;-77
2023/01/09 04:02:20;;;;;;;15.57;5.45;;;;;;;;;;4899461;29;20052;-77
2023/01/09 04:04:46;;;;;;;22.98;5.93;;;;;;;;;;4902407;29;20083;-77
2023/01/09 04:07:12;;;;;;;17.30;5.88;;;;;;;;;;4903312;29;20445;-77
2023/01/09 04:09:38;;;;;;;27.42;6.68;;;;;;;;;;4902809;29;20127;-77
2023/01/09 04:12:04;;;;;;;18.92;7.03;;;;;;;;;;4903094;29;20051;-77
2023/01/09 04:14:31;;;;;;;21.83;6.50;;;;;;;;;;4903114;29;20106;-77
2023/01/09 04:16:59;;;;;;;18.83;6.75;;;;;;;;;;4902553;29;20090;-77
2023/01/09 04:19:25;;;;;;;15.82;7.45;;;;;;;;;;4887651;29;20113;-77
2023/01/09 04:21:51;;;;;;;18.58;7.38;;;;;;;;;;4902698;29;20060;-77
2023/01/09 04:24:17;;;;;;;16.15;7.07;;;;;;;;;;4902572;29;20056;-72
2023/01/09 04:26:43;;;;;;;16.90;6.97;;;;;;;;;;4903037;29;20063;-77
2023/01/09 04:29:09;;;;;;;22.50;8.35;;;;;;;;;;4902830;29;20095;-77
2023/01/09 04:31:35;;;;;;;24.40;7.53;;;;;;;;;;4902581;29;20047;-76
2023/01/09 04:34:01;;;;;;;22.52;7.60;;;;;;;;;;4902447;29;20048;-77
2023/01/09 04:36:28;;;;;;;31.00;9.45;;;;;;;;;;4886927;29;20052;-77
2023/01/09 04:38:54;;;;;;;20.63;8.30;;;;;;;;;;4902439;29;20051;-77
2023/01/09 04:44:04;;;;;;;21.98;8.45;;;;;;;;;;4902483;29;20396;-76
2023/01/09 04:46:31;;;;;;;25.25;8.60;;;;;;;;;;4902177;29;20493;-77
2023/01/09 04:48:59;;;;;;;24.40;8.85;;;;;;;;;;4902554;29;20044;-77
2023/01/09 04:51:25;;;;;;;23.42;8.80;;;;;;;;;;4902180;29;20131;-76
2023/01/09 04:53:51;;;;;;;22.70;9.38;;;;;;;;;;4902368;29;20036;-77
2023/01/09 04:56:17;;;;;;;31.42;10.15;;;;;;;;;;4902222;29;20106;-77
2023/01/09 04:58:43;;;;;;;26.75;9.15;;;;;;;;;;4902368;29;20087;-77
2023/01/09 05:01:09;;;;;;;20.48;8.35;;;;;;;;;;4902308;29;20074;-77
2023/01/09 05:03:35;;;;;;;16.13;8.50;;;;;;;;;;4902280;29;20043;-76
2023/01/09 05:06:01;;;;;;;21.50;8.40;;;;;;;;;;4918735;29;20095;-77
2023/01/09 05:08:27;;;;;;;27.35;8.68;;;;;;;;;;4901991;29;20056;-76
2023/01/09 05:10:54;;;;;;;21.60;8.15;;;;;;;;;;4902120;29;20040;-77
2023/01/09 05:13:20;;;;;;;15.65;8.10;;;;;;;;;;4886475;29;20051;-75
2023/01/09 05:15:46;;;;;;;20.63;7.68;;;;;;;;;;4901792;29;20086;-77
2023/01/09 05:18:12;;;;;;;31.45;8.55;;;;;;;;;;4902284;29;20048;-77
2023/01/09 05:20:38;;;;;;;25.95;7.82;;;;;;;;;;4899974;29;20095;-77
2023/01/09 05:23:04;;;;;;;16.85;7.55;;;;;;;;;;4900417;29;20083;-77
2023/01/09 05:25:30;;;;;;;20.38;7.95;;;;;;;;;;4901541;29;20044;-77
2023/01/09 05:27:56;;;;;;;22.70;8.00;;;;;;;;;;4901762;29;20139;-76
2023/01/09 05:30:22;;;;;;;24.27;7.57;;;;;;;;;;4901709;29;20369;-77
2023/01/09 05:32:48;;;;;;;27.33;8.85;;;;;;;;;;4901421;29;20036;-77
2023/01/09 05:35:14;;;;;;;23.70;8.38;;;;;;;;;;4901170;29;20123;-76
2023/01/09 05:37:40;;;;;;;35.72;9.20;;;;;;;;;;4901397;29;20044;-76
2023/01/09 05:40:07;;;;;;;23.42;9.30;;;6.30;99.90;;;;;;4885830;29;20052;-77
2023/01/09 05:42:33;;;;;;;27.83;10.63;;;;;;;;;;4901358;29;20052;-77
2023/01/09 05:44:59;;;;;;;35.95;10.60;;;;;;;;;;4885729;29;20044;-77
2023/01/09 05:47:25;;;;;;;30.48;10.73;;;;;;;;;;4882560;29;20146;-77
2023/01/09 05:49:51;;;;;;;24.30;10.20;;;;;;;;;;4882423;29;20131;-77
2023/01/09 05:52:17;;;;;;;34.20;11.77;;;;;;;;;;4896250;29;20099;-77
2023/01/09 05:54:43;;;;;;;28.02;11.68;;;;;;;;;;4901433;29;20048;-77
2023/01/09 05:57:09;;;;;;;29.15;11.98;;;;;;;;;;4894936;29;20048;-77
2023/01/09 05:59:35;;;;;;;37.72;13.18;;;;;;;;;;4900740;29;20127;-77
2023/01/09 06:02:01;;;;;;;29.52;13.27;;;;;;;;;;4900848;29;20060;-77
2023/01/09 06:04:28;;;;;;;37.00;14.10;;;;;;;;;;4900482;29;20052;-77
2023/01/09 06:06:55;;;;;;;34.88;14.15;;;;;;;;;;4900418;29;20056;-76
2023/01/09 06:09:21;;;;;;;31.27;13.65;;;;;;;;;;4900592;29;20052;-77
2023/01/09 06:11:47;;;;;;;31.50;14.20;;;;;;;;;;4901905;29;20044;-76
2023/01/09 06:14:13;;;;;;;36.80;15.35;;;;;;;;;;4900589;29;20113;-76
2023/01/09 06:16:39;;;;;;;36.45;14.77;;;;;;;;;;4900651;29;20146;-76
2023/01/09 06:19:05;;;;;;;35.40;16.00;;;;;;;;;;4900303;29;20040;-76
2023/01/09 06:21:32;;;;;;;37.50;16.23;;;;;;;;;;4885111;29;20036;-77
2023/01/09 06:23:58;;;;;;;38.85;16.77;;;;;;;;;;4900477;29;20040;-76
2023/01/09 06:26:25;;;;;;;35.97;16.55;;;6.60;99.90;;;;;;4899570;29;20099;-75
2023/01/09 06:28:54;;;;;;;42.70;16.98;;;;;;;;;;4900032;29;20111;-75
2023/01/09 06:31:20;;;;;;;37.20;14.30;;;;;;;;;;4900209;29;20111;-77
2023/01/09 06:33:46;;;;;;;34.25;15.18;;;;;;;;;;4899832;29;20051;-77
2023/01/09 06:36:12;;;;;;;34.30;14.82;;;;;;;;;;4884661;29;20112;-77
2023/01/09 06:38:38;;;;;;;33.55;14.85;;;;;;;;;;4900067;29;20079;-77
2023/01/09 06:41:05;;;;;;;40.47;15.25;;;;;;;;;;4917324;29;20481;-72
2023/01/09 06:43:31;;;;;;;49.70;14.65;;;;;;;;;;4900082;29;20070;-72
2023/01/09 06:45:57;;;;;;;32.70;15.60;;;;;;;;;;4899809;29;20052;-72
2023/01/09 06:48:26;;;;;;;44.92;16.77;;;;;;;;;;4900291;29;20040;-72
2023/01/09 06:50:52;;;;;;;36.47;16.17;;;;;;;;;;4900444;29;20062;-72
2023/01/09 06:53:19;;;;;;;41.75;16.42;;;;;;;;;;4884544;29;20040;-71
2023/01/09 06:55:45;;;;;;;42.88;18.05;;;;;;;;;;4899883;29;20054;-72
2023/01/09 06:58:11;;;;;;;37.55;15.85;;;;;;;;;;4879968;29;20053;-71
2023/01/09 07:00:37;;;;;;;39.17;16.52;;;;;;;;;;4880772;29;20063;-71
2023/01/09 07:03:04;;;;;;;38.95;18.02;;;;;;;;;;4895389;29;20525;-71
2023/01/09 07:05:30;;;;;;;32.90;17.10;;;;;;;;;;4881177;29;20493;-71
2023/01/09 07:07:57;;;;;;;40.03;17.25;;;;;;;;;;4865481;29;20088;-71
2023/01/09 07:10:23;;;;;;;34.50;16.95;;;;;;;;;;4880531;29;20135;-72
2023/01/09 07:12:49;;;;;;;42.58;18.90;;;;;;;;;;4898251;29;20508;-71
2023/01/09 07:15:15;;;;;;;33.03;17.23;;;;;;;;;;4866055;29;20390;-71
2023/01/09 07:17:41;;;;;;;38.28;17.52;;;;;;;;;;4865835;29;20052;-71
2023/01/09 07:20:08;;;;;;;35.13;17.08;;;6.50;99.90;;;;;;4881488;29;20059;-71
2023/01/09 07:22:34;;;;;;;35.67;17.73;;;;;;;;;;4890309;29;20504;-71
2023/01/09 07:25:00;;;;;;;37.25;18.98;;;;;;;;;;4899896;29;20552;-71
2023/01/09 07:27:26;;;;;;;34.33;17.25;;;;;;;;;;4899924;29;20501;-71
2023/01/09 07:29:52;;;;;;;37.63;16.52;;;;;;;;;;4900076;29;20036;-78
2023/01/09 07:32:18;;;;;;;38.28;18.73;;;;;;;;;;4899697;29;20051;-71
2023/01/09 07:34:44;;;;;;;44.88;19.40;;;;;;;;;;4898885;29;20051;-71
2023/01/09 07:37:10;;;;;;;40.88;18.17;;;;;;;;;;4898312;29;20079;-71
2023/01/09 07:39:36;;;;;;;38.40;16.25;;;;;;;;;;4902820;29;20044;-71
2023/01/09 07:42:02;;;;;;;40.90;18.08;;;;;;;;;;4902687;29;20048;-71
2023/01/09 07:44:28;;;;;;;35.25;17.02;;;;;;;;;;4886993;29;20086;-72
2023/01/09 07:46:54;;;;;;;41.70;18.48;;;;;;;;;;4903452;29;20504;-71
2023/01/09 07:49:21;;;;;;;34.53;16.55;;;;;;;;;;4888151;29;20502;-71
2023/01/09 07:51:47;;;;;;;42.55;16.52;;;;;;;;;;4888051;29;20044;-71
2023/01/09 07:54:13;;;;;;;39.97;17.33;;;;;;;;;;4903437;29;20043;-71
2023/01/09 07:56:40;;;;;;;35.83;16.63;;;;;;;;;;4903249;29;20052;-71
2023/01/09 07:59:06;;;;;;;31.45;16.73;;;;;;;;;;4920345;29;20036;-71
2023/01/09 08:01:32;;;;;;;38.63;17.00;;;;;;;;;;4918855;29;20116;-72
2023/01/09 08:03:58;;;;;;;39.00;16.48;;;;;;;;;;4903286;29;20052;-74
2023/01/09 08:06:24;;;;;;;37.22;16.05;;;;;;;;;;4902896;29;20048;-72
2023/01/09 08:08:50;;;;;;;41.42;16.70;;;;;;;;;;4903098;29;20091;-72
2023/01/09 08:11:16;;;;;;;28.90;14.77;;;;;;;;;;4903338;29;20048;-72
2023/01/09 08:13:42;;;;;;;33.25;15.95;;;;;;;;;;4920020;29;20044;-72
2023/01/09 08:16:08;;;;;;;33.75;14.95;;;;;;;;;;4902942;29;20079;-72
2023/01/09 08:18:34;;;;;;;49.33;15.88;;;;;;;;;;4902971;29;20044;-72
2023/01/09 08:21:00;;;;;;;28.48;14.02;;;;;;;;;;4901562;29;20044;-73
2023/01/09 08:23:27;;;;;;;36.58;14.65;;;;;;;;;;4887730;29;20066;-72
2023/01/09 08:25:55;;;;;;;45.53;14.73;;;;;;;;;;4883597;29;20044;-72
2023/01/09 08:28:21;;;;;;;34.60;15.25;;;;;;;;;;4868501;29;20056;-73
2023/01/09 08:30:47;;;;;;;36.28;13.93;;;;;;;;;;4894254;29;20500;-73
2023/01/09 08:33:14;;;;;;;36.58;14.35;;;;;;;;;;4887049;29;20040;-72
2023/01/09 08:35:40;;;;;;;36.72;13.18;;;;;;;;;;4919482;29;20048;-72
2023/01/09 08:38:06;;;;;;;31.42;12.70;;;;;;;;;;4919594;29;20040;-72
2023/01/09 08:40:32;;;;;;;27.20;12.95;;;;;;;;;;4902279;29;20055;-72
2023/01/09 08:48:27;;;;;;;24.08;12.00;;;;;;;;;;4902247;29;20064;-73
2023/01/09 08:50:53;;;;;;;29.90;11.98;;;;;;;;;;4900867;29;20073;-72
2023/01/09 08:53:19;;;;;;;31.75;12.75;;;;;;;;;;4902067;29;20079;-73
2023/01/09 08:55:45;;;;;;;24.02;11.95;;;;;;;;;;4902011;29;20040;-72
2023/01/09 08:58:12;;;;;;;29.52;11.40;;;;;;;;;;4919137;29;20051;-72
2023/01/09 09:00:38;;;;;;;30.52;11.32;;;;;;;;;;4901942;29;20040;-72
2023/01/09 09:03:04;;;;;;;25.38;10.98;;;;;;;;;;4901731;29;20412;-72
2023/01/09 09:05:31;;;;;;;32.97;11.25;;;;;;;;;;4895236;29;20528;-73
2023/01/09 09:07:57;;;;;;;29.55;10.88;;;;;;;;;;4886071;29;20840;-73
2023/01/09 09:10:26;;;;;;;28.98;11.13;;;6.30;99.90;;;;;;4901728;29;20412;-73
2023/01/09 09:12:53;;;;;;;24.60;11.18;;;6.30;99.90;;;;;;4901762;29;20048;-73
2023/01/09 09:15:23;;;;;;;22.52;10.68;;;;;;;;;;4919010;29;20445;-73
2023/01/09 09:17:49;;;;;;;27.13;10.52;;;;;;;;;;4901670;29;20437;-73
2023/01/09 09:20:16;;;;;;;27.48;10.32;;;;;;;;;;4900179;29;20051;-72
2023/01/09 09:22:42;;;;;;;22.23;9.43;;;;;;;;;;4901600;29;20111;-72
2023/01/09 09:25:08;;;;;;;23.00;10.55;;;;;;;;;;4901627;29;20047;-73
2023/01/09 09:27:35;;;;;;;29.52;11.40;;;;;;;;;;4901861;29;20060;-72
2023/01/09 09:30:01;;;;;;;24.48;9.45;;;;;;;;;;4901440;29;20063;-73
2023/01/09 09:32:27;;;;;;;22.58;9.25;;;;;;;;;;4886008;29;20135;-73
2023/01/09 09:34:53;;;;;;;22.48;9.98;;;;;;;;;;4901430;29;20051;-73
2023/01/09 09:37:20;;;;;;;29.65;9.95;;;;;;;;;;4918460;29;20131;-73
2023/01/09 09:39:46;;;;;;;24.65;9.48;;;;;;;;;;4901369;29;20131;-73
2023/01/09 09:45:28;;;;;;;21.13;8.65;;;;;;;;;;4901116;29;20559;-72
2023/01/09 09:48:12;;;;;;;25.23;9.25;;;6.50;99.90;;;;;;4885721;29;20537;-73
2023/01/09 09:50:41;;;;;;;16.83;8.98;;;;;;;;;;4901497;29;20085;-73
2023/01/09 09:53:16;;;;;;;24.73;10.55;;;;;;;;;;4918106;29;20059;-73
2023/01/09 09:55:44;;;;;;;20.65;8.52;;;;;;;;;;4901307;29;20605;-73
2023/01/09 09:58:37;;;;;;;19.92;9.20;;;6.60;99.90;;;;;;4901090;29;20054;-73
2023/01/09 10:01:04;;;;;;;26.60;8.70;;;6.50;99.90;;;;;;4898763;29;20060;-73
2023/01/09 10:03:34;;;;;;;25.60;9.52;;;;;;;;;;4901026;29;20096;-72
2023/01/09 10:06:15;;;;;;;28.33;10.95;;;6.70;99.90;;;;;;4900726;29;20048;-73
2023/01/09 10:08:41;;;;;;;21.63;8.20;;;;;;;;;;4900768;29;20082;-73
2023/01/09 10:11:23;;;;;;;23.77;9.98;;;6.70;99.90;;;;;;4900816;29;20091;-73
2023/01/09 10:14:04;;;;;;;24.33;9.30;;;;;;;;;;4900978;29;20099;-73
2023/01/09 10:16:34;;;;;;;32.15;9.60;;;;;;;;;;4885313;29;20048;-73
2023/01/09 10:19:07;;;;;;;29.02;9.68;;;;;;;;;;4900925;29;20378;-73
2023/01/09 10:22:08;;;;;;;23.00;9.45;;;6.90;99.90;;;;;;4917552;29;20047;-73
2023/01/09 10:24:41;;;;;;;20.48;8.75;;;;;;;;;;4900765;29;20187;-73
2023/01/09 10:27:29;;;;;;;19.38;7.97;;;7.00;99.90;;;;;;4885061;29;20050;-72
2023/01/09 10:30:23;;;;;;;23.25;9.13;;;6.70;99.90;;;;;;4917485;29;20048;-73
2023/01/09 10:33:17;;;;;;;15.60;8.68;;;6.90;99.90;;;;;;4900557;29;20051;-73
2023/01/09 10:35:55;;;;;;;20.83;8.65;;;;;;;;;;4900376;29;20130;-73
2023/01/09 10:38:36;;;;;;;18.80;9.07;;;;;;;;;;4900336;29;20060;-72
2023/01/09 10:41:06;;;;;;;27.88;8.98;;;;;;;;;;4900327;29;20040;-72
2023/01/09 10:43:44;;;;;;;21.20;9.52;;;;;;;;;;4917494;29;20040;-73
2023/01/09 10:46:26;;;;;;;22.70;8.95;;;6.90;99.90;;;;;;4900233;29;20048;-73
2023/01/09 10:48:59;;;;;;;;;;;7.20;99.90;;;;;;4901012;29;20385;-73
2023/01/09 10:51:36;;;;;;;30.40;9.40;;;6.80;99.90;;;;;;4900477;29;19919;-73
2023/01/09 10:54:04;;;;;;;21.73;8.85;;;7.00;99.90;;;;;;4900516;29;20405;-73
2023/01/09 10:56:38;;;;;;;21.65;8.05;;;7.20;99.90;;;;;;4900490;29;20052;-72
2023/01/09 10:59:04;;;;;;;25.55;9.93;;;;;;;;;;4917145;29;20048;-74
2023/01/09 11:01:38;;;;;;;21.40;8.95;;;7.00;99.90;;;;;;4893000;29;20048;-73
2023/01/09 11:04:20;;;;;;;24.02;9.02;;;;;;;;;;4898058;29;20053;-71
2023/01/09 11:06:49;;;;;;;21.92;9.73;;;7.10;99.90;;;;;;4890391;29;20080;-72
2023/01/09 11:09:15;;;;;;;23.38;9.05;;;;;;;;;;4900334;29;20103;-72
2023/01/09 11:11:44;;;;;;;19.67;8.68;;;;;;;;;;4899837;29;20071;-72
2023/01/09 11:14:14;;;;;;;27.08;9.52;;;;;;;;;;4888985;29;20096;-72
2023/01/09 11:17:03;;;;;;;20.95;9.20;;;;;;;;;;4905208;29;20125;-72
2023/01/09 11:19:32;;;;;;;22.40;9.30;;;7.20;99.90;;;;;;4894090;29;20075;-72
2023/01/09 11:22:10;;;;;;;27.67;9.05;;;;;;;;;;4905892;29;20083;-71
2023/01/09 11:24:36;;;;;;;23.00;9.68;;;;;;;;;;4906513;29;20036;-72
2023/01/09 11:27:24;;;;;;;23.42;8.35;;;;;;;;;;4890648;29;20067;-72
2023/01/09 11:30:06;;;;;;;29.45;9.38;;;7.30;99.90;;;;;;4905908;29;20051;-72
2023/01/09 11:32:33;;;;;;;21.25;9.15;;;7.20;99.90;;;;;;4906372;29;20105;-72
2023/01/09 11:34:59;;;;;;;22.05;10.10;;;;;;;;;;4922015;29;20374;-72
2023/01/09 11:37:29;;;;;;;27.95;10.02;;;;;;;;;;4906527;29;20151;-72
2023/01/09 11:39:57;;;;;;;28.52;10.60;;;7.40;99.90;;;;;;4906496;29;20044;-73
2023/01/09 11:45:18;;;;;;;30.98;10.55;;;;;;;;;;4905781;29;20044;-72
2023/01/09 11:47:44;;;;;;;31.60;11.93;;;;;;;;;;4905998;29;20143;-72
2023/01/09 11:50:21;;;;;;;26.38;11.30;;;7.10;99.90;;;;;;4906499;29;20103;-73
2023/01/09 11:53:10;;;;;;;25.60;10.35;;;7.20;99.90;;;;;;4890382;29;20454;-73
2023/01/09 11:55:36;;;;;;;28.02;11.45;;;;;;;;;;4906330;29;20048;-73
2023/01/09 11:58:02;;;;;;;26.85;11.38;;;;;;;;;;4890339;29;20052;-73
2023/01/09 12:00:29;;;;;;;30.90;11.48;;;;;;;;;;4906058;29;20058;-73
2023/01/09 12:02:55;;;;;;;27.73;12.15;;;;;;;;;;4906374;29;20378;-73
2023/01/09 12:05:35;;;;;;;30.80;12.30;;;7.50;99.90;;;;;;4905952;29;20442;-73
2023/01/09 12:08:27;;;;;;;33.58;12.55;;;7.40;99.90;;;;;;4922604;29;20478;-73
2023/01/09 12:10:54;;;;;;;27.73;13.57;;;;;;;;;;4905741;29;20052;-73
2023/01/09 12:13:57;;;;;;;32.38;13.15;;;7.60;99.90;;;;;;4905931;29;20100;-73
2023/01/09 12:16:34;;;;;;;28.63;13.23;;;;;;;;;;4889589;29;20044;-73
2023/01/09 12:19:25;;;;;;;30.10;13.02;;;7.50;99.90;;;;;;4890484;29;20066;-73
2023/01/09 12:22:14;;;;;;;38.45;15.57;;;;;;;;;;4905771;29;20082;-73
2023/01/09 12:24:40;;;;;;;32.20;13.73;;;;;;;;;;4894473;29;20052;-73
2023/01/09 12:27:29;;;;;;;34.40;14.95;;;7.70;99.90;;;;;;4903023;29;20139;-73
2023/01/09 12:30:20;;;;;;;36.03;14.23;;;7.90;99.90;;;;;;4902608;29;20416;-73
2023/01/09 12:32:58;;;;;;;26.83;12.65;;;;;;;;;;4916743;29;20393;-79
2023/01/09 12:35:37;;;;;;;31.77;13.68;;;7.80;99.90;;;;;;4886723;29;20044;-72
2023/01/09 12:38:10;;;;;;;32.45;13.50;;;;;;;;;;4902495;29;20044;-76
2023/01/09 12:40:36;;;;;;;34.60;14.48;;;;;;;;;;4901924;29;20054;-74
2023/01/09 12:43:21;;;;;;;36.92;13.13;;;;;;;;;;4901905;29;20079;-73
2023/01/09 12:45:47;;;;;;;28.88;13.20;;;;;;;;;;4900176;29;20103;-73
2023/01/09 12:48:13;;;;;;;36.30;14.63;;;;;;;;;;4901886;29;20047;-73
2023/01/09 12:50:56;;;;;;;38.40;14.20;;;8.00;99.90;;;;;;4902007;29;20036;-73
2023/01/09 12:53:52;;;;;;;31.83;11.73;;;;;;;;;;4885759;29;20143;-73
2023/01/09 12:56:28;;;;;;;33.58;12.10;;;8.20;99.90;;;;;;4832553;29;20054;-74
2023/01/09 12:59:01;;;;;;;29.58;10.00;;;;;;;;;;4900045;29;20051;-73
2023/01/09 13:01:32;;;;;;;32.75;11.38;;;;;;;;;;4896890;29;20059;-73
2023/01/09 13:04:05;;;;;;;44.30;12.02;;;;;;;;;;4918418;29;20040;-73
2023/01/09 13:06:33;;;;;;;30.65;9.65;;;;;;;;;;4899326;29;20076;-73
2023/01/09 13:09:20;;;;;;;32.40;10.18;;;8.90;99.90;;;;;;4901438;29;20477;-74
2023/01/09 13:11:54;;;;;;;30.50;10.90;;;;;;;;;;4901508;29;20493;-74
2023/01/09 13:14:24;;;;;;;27.77;7.93;;;;;;;;;;4901032;29;20054;-73
2023/01/09 13:16:52;;;;;;;29.73;8.18;;;;;;;;;;4900410;29;20404;-73
2023/01/09 13:19:41;;;;;;;25.55;6.55;;;;;;;;;;4916053;29;20489;-72
2023/01/09 13:22:09;;;;;;;21.45;4.97;;;;;;;;;;4881751;29;20058;-72
2023/01/09 13:24:39;;;;;;;29.55;5.00;;;;;;;;;;4884608;29;20508;-73
2023/01/09 13:27:08;;;;;;;29.20;5.35;;;;;;;;;;4899930;29;20466;-74
2023/01/09 13:29:37;;;;;;;29.65;5.05;;;;;;;;;;4891351;29;20044;-73
2023/01/09 13:32:07;;;;;;;31.13;6.10;;;;;;;;;;4897362;29;20520;-74
2023/01/09 13:34:35;;;;;;;31.50;4.78;;;8.80;99.90;;;;;;4897741;29;20040;-74
2023/01/09 13:37:02;;;;;;;25.42;5.57;;;;;;;;;;4899978;29;20043;-73
2023/01/09 13:39:32;;;;;;;35.45;6.00;;;;;;;;;;4901075;29;20474;-74
2023/01/09 13:44:47;;;;;;;26.50;4.72;;;8.90;99.90;;;;;;4901144;29;20048;-74
2023/01/09 13:47:26;;;;;;;22.30;5.07;;;8.90;99.90;;;;;;4901290;29;20063;-74
2023/01/09 13:49:52;;;;;;;29.67;6.00;;;;;;;;;;4901212;29;20487;-74
2023/01/09 13:52:37;;;;;;;23.55;5.25;;;;;;;;;;4917098;29;20404;-74
2023/01/09 13:55:03;;;;;;;29.48;5.60;;;;;;;;;;4901347;29;20129;-74
2023/01/09 13:57:34;;;;;;;36.05;5.30;;;;;;;;;;4901156;29;20044;-74
2023/01/09 14:00:12;;;;;;;44.65;5.78;;;8.90;99.90;;;;;;4885502;29;20048;-73
2023/01/09 14:02:38;;;;;;;28.55;6.35;;;;;;;;;;4900804;29;20055;-74
2023/01/09 14:05:27;;;;;;;24.50;5.28;;;;;;;;;;4901027;29;20044;-75
2023/01/09 14:08:12;;;;;;;28.80;5.47;;;8.80;99.90;;;;;;4898880;29;20048;-73
2023/01/09 14:10:48;;;;;;;31.88;6.20;;;8.80;99.90;;;;;;4900972;29;20099;-74
2023/01/09 14:13:27;;;;;;;39.20;5.65;;;;;;;;;;4901103;29;20083;-74
2023/01/09 14:16:16;;;;;;;34.08;7.38;;;8.60;99.90;;;;;;4900753;29;20044;-74
2023/01/09 14:18:52;;;;;;;37.45;7.07;;;8.40;99.90;;;;;;4917830;29;20393;-74
2023/01/09 14:21:18;;;;;;;53.35;8.55;;;;;;;;;;4900699;29;20048;-74
2023/01/09 14:24:02;;;;;;;34.58;7.70;;;8.50;99.90;;;;;;4917762;29;20040;-74
2023/01/09 14:26:49;;;;;;;56.05;9.43;;;8.40;99.90;;;;;;4884985;29;20123;-73
2023/01/09 14:29:30;;;;;;;36.05;7.13;;;;;;;;;;4900897;29;20103;-73
2023/01/09 14:32:15;;;;;;;22.65;6.18;;;;;;;;;;4900635;29;20044;-74
2023/01/09 14:34:42;;;;;;;32.75;7.40;;;;;;;;;;4900702;29;20140;-73
2023/01/09 14:37:12;;;;;;;26.92;6.55;;;8.60;99.90;;;;;;4900722;29;20457;-74
2023/01/09 14:39:41;;;;;;;29.75;5.47;;;;;;;;;;4900863;29;20044;-74
2023/01/09 14:42:14;;;;;;;24.15;5.05;;;8.40;99.90;;;;;;4884814;29;20075;-74